createdAt,value
2023-02-02T00:02:26.900Z,4.54
2023-02-02T00:05:20.242Z,4.56
2023-02-02T00:07:48.139Z,4.69
2023-02-02T00:10:16.245Z,4.63
2023-02-02T00:12:44.136Z,4.62
2023-02-02T00:15:11.940Z,4.65
2023-02-02T00:17:39.805Z,4.63
2023-02-02T00:20:08.156Z,4.68
2023-02-02T00:22:36.143Z,4.59
2023-02-02T00:25:04.062Z,4.52
2023-02-02T00:27:32.205Z,4.50
2023-02-02T00:30:00.917Z,4.56
2023-02-02T00:32:28.729Z,4.48
2023-02-02T00:34:56.582Z,4.44
2023-02-02T00:37:24.426Z,4.24
2023-02-02T00:39:52.284Z,4.26
2023-02-02T00:42:20.135Z,4.23
2023-02-02T00:45:06.764Z,4.37
2023-02-02T00:47:34.841Z,4.48
2023-02-02T00:50:06.760Z,4.41
2023-02-02T00:52:34.717Z,4.35
2023-02-02T00:55:02.615Z,4.34
2023-02-02T00:57:32.192Z,4.54
2023-02-02T01:00:00.230Z,4.40
2023-02-02T01:02:29.336Z,4.37
2023-02-02T01:04:57.356Z,4.41
2023-02-02T01:07:25.214Z,4.44
2023-02-02T01:09:53.052Z,4.35
2023-02-02T01:12:21.028Z,4.42
2023-02-02T01:14:50.007Z,4.41
2023-02-02T01:17:45.003Z,4.40
2023-02-02T01:20:19.570Z,4.26
2023-02-02T01:22:48.364Z,4.37
2023-02-02T01:25:16.234Z,4.44
2023-02-02T01:27:44.051Z,4.32
2023-02-02T01:30:14.356Z,4.36
2023-02-02T01:32:42.210Z,4.43
2023-02-02T01:35:10.887Z,4.38
2023-02-02T01:37:40.240Z,4.39
2023-02-02T01:40:09.034Z,4.48
2023-02-02T01:42:37.007Z,4.45
2023-02-02T01:45:17.305Z,4.49
2023-02-02T01:47:55.213Z,4.64
2023-02-02T01:50:29.923Z,4.55
2023-02-02T01:53:01.484Z,4.64
2023-02-02T01:55:32.625Z,4.67
2023-02-02T01:58:18.258Z,4.66
2023-02-02T02:00:47.210Z,4.73
2023-02-02T02:03:23.049Z,4.77
2023-02-02T02:06:19.252Z,4.64
2023-02-02T02:09:09.209Z,4.53
2023-02-02T02:11:37.316Z,4.41
2023-02-02T02:14:27.285Z,4.48
2023-02-02T02:17:46.973Z,4.39
2023-02-02T02:20:53.236Z,4.36
2023-02-02T02:24:16.831Z,4.08
2023-02-02T02:27:20.302Z,3.12
2023-02-02T02:30:07.981Z,3.10
2023-02-02T02:32:57.261Z,2.67
2023-02-02T02:35:36.045Z,2.54
2023-02-02T02:38:25.281Z,2.89
2023-02-02T02:41:24.458Z,2.54
2023-02-02T02:44:00.434Z,2.62
2023-02-02T02:46:28.647Z,2.72
2023-02-02T02:49:01.996Z,2.42
2023-02-02T02:51:40.344Z,2.06
2023-02-02T02:54:09.259Z,2.19
2023-02-02T02:57:13.694Z,2.32
2023-02-02T03:00:17.249Z,2.07
2023-02-02T03:03:00.590Z,1.96
2023-02-02T03:05:44.365Z,1.85
2023-02-02T03:08:27.578Z,1.80
2023-02-02T03:10:58.228Z,1.77
2023-02-02T03:13:27.759Z,1.91
2023-02-02T03:15:56.080Z,1.95
2023-02-02T03:18:28.789Z,1.74
2023-02-02T03:20:58.753Z,1.46
2023-02-02T03:23:27.108Z,1.37
2023-02-02T03:25:55.770Z,1.34
2023-02-02T03:28:24.462Z,1.39
2023-02-02T03:30:54.389Z,1.26
2023-02-02T03:33:22.770Z,1.61
2023-02-02T03:35:50.687Z,1.45
2023-02-02T03:38:19.009Z,1.45
2023-02-02T03:40:46.849Z,1.53
2023-02-02T03:43:20.323Z,1.54
2023-02-02T03:45:48.230Z,1.53
2023-02-02T03:48:16.031Z,1.68
2023-02-02T03:50:43.864Z,1.64
2023-02-02T03:53:11.725Z,1.77
2023-02-02T03:55:40.613Z,1.77
2023-02-02T03:58:08.457Z,1.67
2023-02-02T04:00:36.503Z,1.71
2023-02-02T04:03:04.372Z,1.73
2023-02-02T04:05:32.455Z,1.74
2023-02-02T04:08:00.256Z,1.50
2023-02-02T04:10:28.245Z,1.65
2023-02-02T04:12:56.025Z,1.74
2023-02-02T04:15:24.106Z,1.77
2023-02-02T04:17:55.313Z,1.70
2023-02-02T04:20:23.122Z,1.46
2023-02-02T04:22:52.217Z,1.35
2023-02-02T04:25:20.432Z,1.35
2023-02-02T04:27:48.304Z,1.39
2023-02-02T04:30:20.410Z,1.37
2023-02-02T04:32:48.275Z,1.28
2023-02-02T04:35:16.227Z,1.18
2023-02-02T04:37:45.216Z,1.14
2023-02-02T04:40:13.823Z,1.17
2023-02-02T04:42:41.767Z,1.13
2023-02-02T04:45:11.349Z,1.32
2023-02-02T04:47:39.150Z,1.16
2023-02-02T04:50:12.321Z,1.30
2023-02-02T04:52:40.127Z,1.14
2023-02-02T04:55:08.635Z,1.20
2023-02-02T04:57:37.223Z,1.19
2023-02-02T05:00:06.764Z,1.34
2023-02-02T05:14:13.294Z,1.76
2023-02-02T05:16:41.379Z,1.38
2023-02-02T05:19:11.898Z,1.25
2023-02-02T05:21:39.844Z,1.38
2023-02-02T05:24:11.979Z,1.39
2023-02-02T05:26:41.332Z,1.24
2023-02-02T05:29:09.434Z,1.07
2023-02-02T05:31:37.914Z,1.48
2023-02-02T05:34:07.241Z,1.45
2023-02-02T05:36:36.928Z,1.54
2023-02-02T05:39:06.257Z,1.50
2023-02-02T05:41:34.055Z,1.44
2023-02-02T05:44:02.477Z,1.24
2023-02-02T05:46:30.854Z,1.52
2023-02-02T05:49:05.240Z,1.70
2023-02-02T05:51:43.460Z,1.64
2023-02-02T05:54:19.419Z,1.79
2023-02-02T05:56:48.212Z,1.93
2023-02-02T05:59:17.491Z,1.80
2023-02-02T06:01:48.361Z,1.86
2023-02-02T06:04:16.355Z,2.16
2023-02-02T06:06:44.705Z,1.99
2023-02-02T06:09:16.007Z,1.80
2023-02-02T06:11:44.846Z,1.72
2023-02-02T06:14:12.830Z,1.69
2023-02-02T06:16:42.332Z,1.75
2023-02-02T06:19:10.200Z,1.69
2023-02-02T06:21:39.953Z,1.50
2023-02-02T06:24:09.240Z,1.70
2023-02-02T06:26:37.073Z,1.70
2023-02-02T06:29:05.005Z,1.63
2023-02-02T06:31:36.107Z,1.49
2023-02-02T06:34:04.460Z,1.48
2023-02-02T06:36:32.279Z,1.41
2023-02-02T06:39:00.137Z,1.66
2023-02-02T06:41:29.315Z,1.92
2023-02-02T06:43:57.197Z,1.76
2023-02-02T06:46:26.458Z,1.90
2023-02-02T06:48:54.350Z,1.75
2023-02-02T06:51:23.369Z,1.82
2023-02-02T06:53:52.035Z,1.73
2023-02-02T06:56:19.889Z,1.78
2023-02-02T06:58:49.278Z,1.77
2023-02-02T07:01:18.000Z,1.86
2023-02-02T07:03:53.441Z,1.55
2023-02-02T07:06:25.242Z,1.86
2023-02-02T07:09:02.580Z,1.99
2023-02-02T07:11:37.771Z,1.89
2023-02-02T07:14:12.249Z,2.01
2023-02-02T07:16:40.197Z,2.14
2023-02-02T07:19:11.320Z,2.11
2023-02-02T07:24:33.283Z,1.64
2023-02-02T07:27:01.162Z,1.95
2023-02-02T07:29:28.987Z,1.72
2023-02-02T07:31:57.178Z,1.84
2023-02-02T07:34:25.570Z,1.66
2023-02-02T07:36:53.535Z,1.79
2023-02-02T07:39:21.578Z,1.75
2023-02-02T07:42:14.393Z,1.71
2023-02-02T07:44:43.132Z,1.83
2023-02-02T07:47:10.923Z,1.94
2023-02-02T07:49:40.441Z,1.93
2023-02-02T07:52:08.460Z,2.09
2023-02-02T07:54:36.296Z,2.14
2023-02-02T07:57:04.097Z,1.91
2023-02-02T08:02:23.563Z,2.00
2023-02-02T08:04:51.403Z,2.17
2023-02-02T08:07:24.747Z,2.06
2023-02-02T08:09:53.977Z,2.24
2023-02-02T08:12:24.835Z,2.28
2023-02-02T08:15:18.303Z,2.13
2023-02-02T08:17:49.819Z,2.19
2023-02-02T08:20:17.923Z,2.35
2023-02-02T08:25:39.271Z,2.49
2023-02-02T08:28:33.534Z,2.16
2023-02-02T08:31:11.480Z,2.31
2023-02-02T08:33:40.055Z,2.30
2023-02-02T08:39:11.973Z,2.16
2023-02-02T08:41:39.853Z,2.14
2023-02-02T08:46:00.059Z,2.27
2023-02-02T08:47:21.263Z,2.22
2023-02-02T08:49:51.302Z,2.19
2023-02-02T08:52:19.281Z,2.05
2023-02-02T08:54:47.136Z,2.16
2023-02-02T08:57:15.121Z,2.15
2023-02-02T08:59:46.867Z,1.96
2023-02-02T09:02:17.282Z,2.17
2023-02-02T09:04:46.996Z,2.21
2023-02-02T09:07:15.424Z,2.26
2023-02-02T09:09:43.459Z,2.22
2023-02-02T09:12:11.545Z,2.34
2023-02-02T09:14:39.947Z,2.23
2023-02-02T09:17:08.167Z,2.38
2023-02-02T09:19:37.347Z,2.16
2023-02-02T09:22:05.949Z,2.24
2023-02-02T09:24:33.750Z,2.33
2023-02-02T09:27:02.443Z,2.33
2023-02-02T09:29:55.170Z,2.35
2023-02-02T09:32:23.008Z,2.33
2023-02-02T09:34:50.837Z,2.30
2023-02-02T09:37:19.083Z,2.29
2023-02-02T09:39:46.899Z,2.30
2023-02-02T09:42:48.341Z,2.37
2023-02-02T09:45:28.438Z,2.41
2023-02-02T09:48:21.302Z,2.40
2023-02-02T09:51:01.406Z,2.49
2023-02-02T09:53:46.067Z,2.43
2023-02-02T09:56:31.156Z,2.39
2023-02-02T09:59:18.734Z,2.56
2023-02-02T10:01:52.741Z,2.55
2023-02-02T10:04:41.248Z,2.57
2023-02-02T10:07:30.612Z,2.52
2023-02-02T10:10:13.289Z,2.56
2023-02-02T10:12:58.975Z,2.54
2023-02-02T10:15:43.432Z,2.63
2023-02-02T10:18:18.397Z,2.57
2023-02-02T10:20:54.310Z,2.64
2023-02-02T10:23:33.543Z,2.60
2023-02-02T10:26:14.456Z,2.59
2023-02-02T10:29:17.180Z,2.67
2023-02-02T10:32:13.526Z,2.58
2023-02-02T10:34:44.199Z,2.72
2023-02-02T10:40:42.360Z,2.81
2023-02-02T10:43:47.097Z,2.90
2023-02-02T10:46:40.496Z,2.90
2023-02-02T10:49:26.382Z,2.77
2023-02-02T10:52:32.972Z,2.84
2023-02-02T10:55:10.154Z,2.73
2023-02-02T10:57:59.301Z,2.74
2023-02-02T11:00:50.914Z,2.69
2023-02-02T11:03:22.308Z,2.69
2023-02-02T11:06:09.749Z,2.75
2023-02-02T11:11:46.282Z,2.75
2023-02-02T11:14:19.033Z,2.77
2023-02-02T11:17:03.267Z,2.84
2023-02-02T11:19:35.216Z,2.93
2023-02-02T11:22:05.318Z,2.67
2023-02-02T11:24:46.281Z,2.64
2023-02-02T11:27:18.531Z,2.65
2023-02-02T11:29:49.645Z,2.56
2023-02-02T11:32:30.717Z,2.53
2023-02-02T11:35:04.748Z,2.46
2023-02-02T11:40:31.349Z,2.41
2023-02-02T11:43:14.298Z,2.64
2023-02-02T11:45:45.274Z,2.33
2023-02-02T11:48:20.213Z,2.40
2023-02-02T11:50:54.506Z,2.35
2023-02-02T11:53:57.484Z,2.41
2023-02-02T11:56:28.405Z,2.34
2023-02-02T11:58:59.207Z,2.38
2023-02-02T12:01:30.728Z,2.34
2023-02-02T12:04:19.624Z,2.44
2023-02-02T12:06:48.293Z,2.17
2023-02-02T12:09:23.469Z,2.33
2023-02-02T12:11:59.286Z,2.24
2023-02-02T12:14:52.330Z,2.29
2023-02-02T12:17:45.313Z,1.94
2023-02-02T12:20:33.334Z,2.02
2023-02-02T12:23:17.310Z,2.02
2023-02-02T12:25:50.834Z,2.16
2023-02-02T12:28:30.807Z,1.85
2023-02-02T12:31:14.050Z,1.97
2023-02-02T12:34:05.450Z,2.11
2023-02-02T12:37:20.957Z,2.23
2023-02-02T12:39:59.254Z,2.20
2023-02-02T12:42:47.689Z,2.02
2023-02-02T12:45:20.566Z,2.32
2023-02-02T12:48:19.949Z,2.09
2023-02-02T12:51:10.947Z,2.08
2023-02-02T12:54:33.697Z,1.81
2023-02-02T12:57:25.319Z,1.92
2023-02-02T13:00:14.561Z,1.88
2023-02-02T13:03:11.961Z,2.28
2023-02-02T13:05:53.431Z,1.94
2023-02-02T13:18:03.270Z,2.02
2023-02-02T13:20:59.672Z,1.90
2023-02-02T13:23:34.413Z,1.92
2023-02-02T13:26:21.857Z,1.74
2023-02-02T13:29:31.434Z,1.89
2023-02-02T13:32:07.952Z,2.01
2023-02-02T13:34:39.814Z,2.02
2023-02-02T13:37:17.213Z,1.72
2023-02-02T13:39:56.454Z,1.72
2023-02-02T13:42:44.160Z,1.81
2023-02-02T13:45:33.307Z,1.69
2023-02-02T13:48:30.528Z,1.78
2023-02-02T13:51:11.313Z,1.85
2023-02-02T13:54:07.773Z,1.74
2023-02-02T13:56:57.572Z,1.71
2023-02-02T13:59:57.024Z,1.70
2023-02-02T14:02:35.485Z,1.62
2023-02-02T14:05:07.195Z,1.59
2023-02-02T14:07:45.382Z,1.74
2023-02-02T14:10:32.058Z,1.63
2023-02-02T14:13:51.333Z,1.78
2023-02-02T14:16:44.508Z,1.52
2023-02-02T14:19:35.541Z,1.34
2023-02-02T14:22:05.646Z,1.36
2023-02-02T14:24:36.404Z,1.29
2023-02-02T14:27:10.178Z,1.56
2023-02-02T14:29:59.363Z,1.46
2023-02-02T14:32:29.863Z,1.46
2023-02-02T14:35:20.931Z,1.38
2023-02-02T14:37:51.224Z,1.51
2023-02-02T14:40:36.453Z,1.38
2023-02-02T14:43:41.148Z,1.24
2023-02-02T14:46:15.453Z,1.24
2023-02-02T14:48:47.655Z,1.39
2023-02-02T14:51:25.296Z,1.34
2023-02-02T14:54:18.805Z,1.25
2023-02-02T14:57:00.321Z,1.20
2023-02-02T14:59:35.717Z,1.14
2023-02-02T15:02:21.944Z,1.32
2023-02-02T15:04:50.305Z,1.33
2023-02-02T15:07:24.427Z,1.34
2023-02-02T15:09:56.571Z,1.28
2023-02-02T15:12:30.236Z,1.26
2023-02-02T15:15:08.083Z,1.34
2023-02-02T15:17:42.324Z,1.33
2023-02-02T15:20:33.743Z,1.43
2023-02-02T15:23:34.291Z,1.22
2023-02-02T15:26:13.509Z,1.19
2023-02-02T15:29:19.124Z,1.20
2023-02-02T15:31:50.971Z,1.31
2023-02-02T15:34:32.571Z,1.24
2023-02-02T15:37:05.932Z,1.30
2023-02-02T15:39:41.558Z,1.46
2023-02-02T15:42:36.213Z,1.49
2023-02-02T15:45:11.379Z,1.25
2023-02-02T15:47:41.882Z,1.36
2023-02-02T15:50:36.728Z,1.36
2023-02-02T15:53:04.745Z,1.32
2023-02-02T15:55:36.236Z,1.16
2023-02-02T15:58:31.522Z,1.15
2023-02-02T16:01:06.569Z,1.25
2023-02-02T16:03:46.467Z,1.27
2023-02-02T16:06:15.329Z,1.13
2023-02-02T16:08:43.873Z,1.07
2023-02-02T16:11:18.546Z,1.01
2023-02-02T16:14:05.802Z,1.05
2023-02-02T16:16:46.133Z,1.20
2023-02-02T16:19:26.194Z,1.17
2023-02-02T16:22:02.111Z,1.09
2023-02-02T16:24:36.429Z,1.09
2023-02-02T16:30:26.363Z,1.25
2023-02-02T16:32:54.183Z,1.18
2023-02-02T16:35:39.465Z,1.03
2023-02-02T16:38:31.648Z,0.95
2023-02-02T16:41:12.013Z,0.99
2023-02-02T16:43:43.578Z,1.12
2023-02-02T16:46:14.416Z,1.32
2023-02-02T16:48:44.985Z,1.05
2023-02-02T16:51:19.041Z,1.32
2023-02-02T16:54:10.252Z,1.07
2023-02-02T16:56:49.343Z,1.20
2023-02-02T16:59:28.384Z,1.14
2023-02-02T17:02:27.456Z,1.22
2023-02-02T17:05:17.915Z,1.39
2023-02-02T17:07:53.652Z,1.06
2023-02-02T17:10:24.079Z,1.05
2023-02-02T17:12:53.332Z,1.04
2023-02-02T17:15:25.728Z,0.98
2023-02-02T17:17:54.326Z,1.09
2023-02-02T17:20:22.782Z,1.18
2023-02-02T17:23:07.307Z,1.26
2023-02-02T17:25:38.466Z,1.15
2023-02-02T17:28:32.330Z,1.32
2023-02-02T17:31:11.780Z,1.14
2023-02-02T17:33:45.349Z,1.18
2023-02-02T17:36:13.639Z,1.28
2023-02-02T17:38:44.929Z,1.12
2023-02-02T17:44:07.349Z,1.43
2023-02-02T17:46:38.343Z,1.49
2023-02-02T17:49:09.325Z,1.59
2023-02-02T17:51:43.076Z,1.54
2023-02-02T17:54:16.487Z,1.41
2023-02-02T17:56:44.551Z,1.56
2023-02-02T17:59:12.384Z,1.56
2023-02-02T18:04:39.398Z,1.49
2023-02-02T18:07:10.352Z,1.55
2023-02-02T18:09:38.966Z,1.71
2023-02-02T18:12:07.326Z,1.86
2023-02-02T18:14:35.248Z,1.58
2023-02-02T18:17:03.987Z,1.76
2023-02-02T18:19:32.256Z,1.71
2023-02-02T18:22:00.097Z,1.73
2023-02-02T18:24:28.215Z,1.86
2023-02-02T18:27:22.460Z,1.76
2023-02-02T18:29:50.574Z,1.77
2023-02-02T18:32:18.405Z,1.76
2023-02-02T18:34:52.489Z,1.68
2023-02-02T18:37:24.039Z,1.88
2023-02-02T18:39:54.155Z,1.83
2023-02-02T18:42:22.043Z,1.67
2023-02-02T18:44:50.070Z,1.70
2023-02-02T18:47:19.340Z,1.92
2023-02-02T18:49:47.192Z,1.96
2023-02-02T18:52:16.337Z,1.90
2023-02-02T18:54:49.822Z,1.77
2023-02-02T18:57:19.352Z,1.90
2023-02-02T18:59:47.224Z,1.83
2023-02-02T19:02:17.671Z,1.75
2023-02-02T19:05:04.788Z,1.65
2023-02-02T19:07:51.931Z,1.82
2023-02-02T19:10:20.342Z,1.92
2023-02-02T19:13:17.996Z,1.72
2023-02-02T19:15:48.482Z,1.89
2023-02-02T19:18:24.345Z,1.75
2023-02-02T19:20:53.341Z,1.72
2023-02-02T19:23:32.123Z,1.76
2023-02-02T19:26:01.382Z,1.84
2023-02-02T19:28:31.258Z,1.71
2023-02-02T19:31:03.528Z,1.76
2023-02-02T19:33:46.089Z,1.76
2023-02-02T19:36:24.418Z,1.79
2023-02-02T19:38:58.045Z,1.58
2023-02-02T19:41:29.785Z,1.75
2023-02-02T19:44:31.453Z,1.75
2023-02-02T19:49:53.448Z,1.69
2023-02-02T19:52:48.572Z,1.69
2023-02-02T19:58:20.115Z,1.81
2023-02-02T20:00:50.649Z,1.68
2023-02-02T20:03:29.584Z,1.66
2023-02-02T20:05:58.070Z,1.76
2023-02-02T20:08:51.454Z,1.79
2023-02-02T20:11:38.833Z,1.69
2023-02-02T20:14:22.444Z,1.86
2023-02-02T20:16:53.869Z,1.77
2023-02-02T20:19:26.570Z,1.77
2023-02-02T20:21:56.190Z,1.71
2023-02-02T20:24:28.617Z,1.82
2023-02-02T20:27:22.113Z,1.75
2023-02-02T20:29:54.507Z,1.72
2023-02-02T20:32:47.981Z,1.72
2023-02-02T20:35:37.906Z,1.78
2023-02-02T20:38:26.143Z,1.70
2023-02-02T20:40:57.493Z,1.77
2023-02-02T20:43:26.494Z,1.85
2023-02-02T20:45:54.887Z,1.63
2023-02-02T20:48:26.474Z,1.88
2023-02-02T20:50:56.620Z,1.87
2023-02-02T20:53:25.355Z,1.81
2023-02-02T20:55:59.373Z,1.66
2023-02-02T20:58:27.179Z,1.75
2023-02-02T21:00:59.389Z,1.76
2023-02-02T21:03:27.252Z,1.75
2023-02-02T21:05:55.085Z,1.83
2023-02-02T21:08:26.533Z,1.68
2023-02-02T21:10:56.045Z,1.70
2023-02-02T21:13:23.943Z,1.87
2023-02-02T21:18:47.274Z,1.53
2023-02-02T21:21:18.912Z,1.69
2023-02-02T21:23:55.370Z,1.79
2023-02-02T21:26:30.456Z,1.72
2023-02-02T21:29:00.363Z,1.43
2023-02-02T21:31:28.954Z,1.46
2023-02-02T21:33:58.362Z,1.58
2023-02-02T21:36:36.836Z,1.45
2023-02-02T21:39:26.356Z,1.43
2023-02-02T21:42:13.177Z,1.52
2023-02-02T21:44:44.733Z,1.41
2023-02-02T21:47:37.016Z,1.35
2023-02-02T21:50:21.446Z,1.44
2023-02-02T21:52:49.321Z,1.48
2023-02-02T21:55:33.563Z,1.53
2023-02-02T21:58:17.783Z,1.45
2023-02-02T22:00:47.004Z,1.46
2023-02-02T22:03:32.093Z,1.50
2023-02-02T22:06:28.111Z,1.40
2023-02-02T22:09:12.565Z,1.40
2023-02-02T22:11:46.970Z,1.43
2023-02-02T22:14:41.963Z,1.47
2023-02-02T22:17:24.278Z,1.32
2023-02-02T22:20:15.850Z,1.27
2023-02-02T22:22:50.421Z,1.12
2023-02-02T22:25:18.406Z,1.14
2023-02-02T22:27:49.952Z,1.04
2023-02-02T22:30:38.751Z,1.01
2023-02-02T22:33:09.130Z,1.09
2023-02-02T22:35:37.685Z,1.03
2023-02-02T22:38:06.660Z,0.98
2023-02-02T22:40:35.251Z,0.90
2023-02-02T22:43:06.364Z,0.87
2023-02-02T22:45:35.202Z,0.91
2023-02-02T22:48:04.349Z,0.84
2023-02-02T22:50:34.913Z,0.85
2023-02-02T22:53:06.302Z,0.79
2023-02-02T22:55:35.418Z,0.77
2023-02-02T22:58:06.361Z,0.83
2023-02-02T23:00:34.273Z,0.82
2023-02-02T23:03:02.209Z,0.73
2023-02-02T23:05:31.401Z,0.77
2023-02-02T23:07:59.227Z,0.76
2023-02-02T23:10:28.264Z,0.76
2023-02-02T23:12:58.638Z,0.73
2023-02-02T23:15:27.359Z,0.76
2023-02-02T23:17:55.178Z,0.74
2023-02-02T23:20:23.791Z,0.76
2023-02-02T23:22:53.107Z,0.72
2023-02-02T23:25:22.002Z,0.79
2023-02-02T23:27:50.063Z,0.77
2023-02-02T23:30:21.099Z,0.79
2023-02-02T23:32:49.054Z,0.77
2023-02-02T23:35:18.539Z,0.77
2023-02-02T23:37:46.470Z,0.74
2023-02-02T23:40:14.277Z,0.76
2023-02-02T23:42:46.060Z,0.80
2023-02-02T23:45:16.180Z,0.77
2023-02-02T23:47:46.511Z,0.78
2023-02-02T23:50:14.527Z,0.82
2023-02-02T23:52:43.413Z,0.76
2023-02-02T23:55:37.509Z,0.81
2023-02-02T23:58:06.079Z,0.85
